sensor_id;sensor_type;location;lat;lon;timestamp;P1;durP1;ratioP1;P2;durP2;ratioP2
28160;SDS011;15448;51.956;7.670;2022-08-19T00:01:36;15.23;;;14.23;;
28160;SDS011;15448;51.956;7.670;2022-08-19T00:04:03;15.90;;;14.90;;
28160;SDS011;15448;51.956;7.670;2022-08-19T00:06:31;15.93;;;14.93;;
28160;SDS011;15448;51.956;7.670;2022-08-19T00:08:57;15.40;;;14.60;;
28160;SDS011;15448;51.956;7.670;2022-08-19T00:11:25;15.70;;;14.80;;
28160;SDS011;15448;51.956;7.670;2022-08-19T00:13:52;15.50;;;14.23;;
28160;SDS011;15448;51.956;7.670;2022-08-19T00:16:18;16.27;;;15.40;;
28160;SDS011;15448;51.956;7.670;2022-08-19T00:18:45;15.77;;;14.90;;
28160;SDS011;15448;51.956;7.670;2022-08-19T00:21:11;15.77;;;14.90;;
28160;SDS011;15448;51.956;7.670;2022-08-19T00:23:37;14.70;;;13.93;;
28160;SDS011;15448;51.956;7.670;2022-08-19T00:26:03;14.80;;;13.80;;
28160;SDS011;15448;51.956;7.670;2022-08-19T00:28:30;14.87;;;13.97;;
28160;SDS011;15448;51.956;7.670;2022-08-19T00:30:55;15.90;;;15.00;;
28160;SDS011;15448;51.956;7.670;2022-08-19T00:33:21;16.07;;;15.10;;
28160;SDS011;15448;51.956;7.670;2022-08-19T00:35:47;16.10;;;15.20;;
28160;SDS011;15448;51.956;7.670;2022-08-19T00:38:12;16.00;;;14.90;;
28160;SDS011;15448;51.956;7.670;2022-08-19T00:40:38;18.37;;;16.87;;
28160;SDS011;15448;51.956;7.670;2022-08-19T00:43:07;15.23;;;14.40;;
28160;SDS011;15448;51.956;7.670;2022-08-19T00:45:38;15.97;;;15.07;;
28160;SDS011;15448;51.956;7.670;2022-08-19T00:48:06;16.97;;;15.90;;
28160;SDS011;15448;51.956;7.670;2022-08-19T00:50:32;15.90;;;14.87;;
28160;SDS011;15448;51.956;7.670;2022-08-19T00:52:59;17.53;;;16.00;;
28160;SDS011;15448;51.956;7.670;2022-08-19T00:55:29;16.23;;;15.33;;
28160;SDS011;15448;51.956;7.670;2022-08-19T00:57:58;16.27;;;15.20;;
28160;SDS011;15448;51.956;7.670;2022-08-19T01:00:27;16.90;;;15.70;;
28160;SDS011;15448;51.956;7.670;2022-08-19T01:02:53;17.13;;;15.77;;
28160;SDS011;15448;51.956;7.670;2022-08-19T01:05:20;15.90;;;14.90;;
28160;SDS011;15448;51.956;7.670;2022-08-19T01:07:49;16.60;;;15.27;;
28160;SDS011;15448;51.956;7.670;2022-08-19T01:10:16;16.00;;;15.10;;
28160;SDS011;15448;51.956;7.670;2022-08-19T01:12:47;14.77;;;13.87;;
28160;SDS011;15448;51.956;7.670;2022-08-19T01:15:16;16.23;;;15.27;;
28160;SDS011;15448;51.956;7.670;2022-08-19T01:17:45;14.90;;;14.10;;
28160;SDS011;15448;51.956;7.670;2022-08-19T01:20:14;16.33;;;15.33;;
28160;SDS011;15448;51.956;7.670;2022-08-19T01:22:43;15.83;;;14.90;;
28160;SDS011;15448;51.956;7.670;2022-08-19T01:25:19;17.13;;;15.47;;
28160;SDS011;15448;51.956;7.670;2022-08-19T01:27:48;17.43;;;16.03;;
28160;SDS011;15448;51.956;7.670;2022-08-19T01:30:17;16.00;;;14.90;;
28160;SDS011;15448;51.956;7.670;2022-08-19T01:32:49;16.87;;;15.77;;
28160;SDS011;15448;51.956;7.670;2022-08-19T01:35:16;18.13;;;16.77;;
28160;SDS011;15448;51.956;7.670;2022-08-19T01:37:44;17.97;;;16.43;;
28160;SDS011;15448;51.956;7.670;2022-08-19T01:40:19;17.17;;;15.97;;
28160;SDS011;15448;51.956;7.670;2022-08-19T01:42:50;16.80;;;15.80;;
28160;SDS011;15448;51.956;7.670;2022-08-19T01:45:17;17.27;;;15.67;;
28160;SDS011;15448;51.956;7.670;2022-08-19T01:47:44;17.07;;;15.97;;
28160;SDS011;15448;51.956;7.670;2022-08-19T01:50:10;16.83;;;15.67;;
28160;SDS011;15448;51.956;7.670;2022-08-19T01:52:37;16.30;;;15.20;;
28160;SDS011;15448;51.956;7.670;2022-08-19T01:55:06;16.57;;;15.37;;
28160;SDS011;15448;51.956;7.670;2022-08-19T01:57:33;17.57;;;16.20;;
28160;SDS011;15448;51.956;7.670;2022-08-19T01:59:59;16.17;;;15.00;;
28160;SDS011;15448;51.956;7.670;2022-08-19T02:02:28;15.50;;;14.60;;
28160;SDS011;15448;51.956;7.670;2022-08-19T02:04:54;15.63;;;14.60;;
28160;SDS011;15448;51.956;7.670;2022-08-19T02:07:19;17.13;;;15.70;;
28160;SDS011;15448;51.956;7.670;2022-08-19T02:09:46;17.07;;;15.53;;
28160;SDS011;15448;51.956;7.670;2022-08-19T02:12:13;16.57;;;15.60;;
28160;SDS011;15448;51.956;7.670;2022-08-19T02:14:38;22.50;;;16.30;;
28160;SDS011;15448;51.956;7.670;2022-08-19T02:17:04;17.03;;;15.77;;
28160;SDS011;15448;51.956;7.670;2022-08-19T02:19:29;17.90;;;16.57;;
28160;SDS011;15448;51.956;7.670;2022-08-19T02:21:57;17.27;;;16.03;;
28160;SDS011;15448;51.956;7.670;2022-08-19T02:24:23;17.47;;;16.13;;
28160;SDS011;15448;51.956;7.670;2022-08-19T02:26:49;17.87;;;16.43;;
28160;SDS011;15448;51.956;7.670;2022-08-19T02:29:14;17.80;;;16.37;;
28160;SDS011;15448;51.956;7.670;2022-08-19T02:31:40;16.13;;;15.13;;
28160;SDS011;15448;51.956;7.670;2022-08-19T02:34:06;16.83;;;15.40;;
28160;SDS011;15448;51.956;7.670;2022-08-19T02:36:31;17.93;;;16.30;;
28160;SDS011;15448;51.956;7.670;2022-08-19T02:38:57;16.73;;;15.40;;
28160;SDS011;15448;51.956;7.670;2022-08-19T02:41:24;18.17;;;15.90;;
28160;SDS011;15448;51.956;7.670;2022-08-19T02:43:51;17.40;;;16.20;;
28160;SDS011;15448;51.956;7.670;2022-08-19T02:46:19;16.97;;;15.57;;
28160;SDS011;15448;51.956;7.670;2022-08-19T02:48:50;16.00;;;14.73;;
28160;SDS011;15448;51.956;7.670;2022-08-19T02:51:18;16.83;;;15.33;;
28160;SDS011;15448;51.956;7.670;2022-08-19T02:53:49;17.17;;;15.87;;
28160;SDS011;15448;51.956;7.670;2022-08-19T02:56:15;16.07;;;14.90;;
28160;SDS011;15448;51.956;7.670;2022-08-19T02:58:40;18.40;;;16.73;;
28160;SDS011;15448;51.956;7.670;2022-08-19T03:01:06;16.70;;;15.33;;
28160;SDS011;15448;51.956;7.670;2022-08-19T03:03:32;17.80;;;16.10;;
28160;SDS011;15448;51.956;7.670;2022-08-19T03:06:09;15.93;;;14.87;;
28160;SDS011;15448;51.956;7.670;2022-08-19T03:08:37;16.93;;;15.73;;
28160;SDS011;15448;51.956;7.670;2022-08-19T03:11:05;17.40;;;15.90;;
28160;SDS011;15448;51.956;7.670;2022-08-19T03:13:31;16.50;;;15.40;;
28160;SDS011;15448;51.956;7.670;2022-08-19T03:15:56;16.57;;;15.33;;
28160;SDS011;15448;51.956;7.670;2022-08-19T03:18:22;17.23;;;15.70;;
28160;SDS011;15448;51.956;7.670;2022-08-19T03:20:49;16.10;;;14.70;;
28160;SDS011;15448;51.956;7.670;2022-08-19T03:23:17;16.50;;;15.40;;
28160;SDS011;15448;51.956;7.670;2022-08-19T03:25:45;15.97;;;14.70;;
28160;SDS011;15448;51.956;7.670;2022-08-19T03:28:12;17.03;;;15.57;;
28160;SDS011;15448;51.956;7.670;2022-08-19T03:30:39;16.67;;;15.10;;
28160;SDS011;15448;51.956;7.670;2022-08-19T03:33:06;15.87;;;14.60;;
28160;SDS011;15448;51.956;7.670;2022-08-19T03:35:32;17.20;;;15.90;;
28160;SDS011;15448;51.956;7.670;2022-08-19T03:38:01;15.60;;;14.47;;
28160;SDS011;15448;51.956;7.670;2022-08-19T03:40:28;16.77;;;15.37;;
28160;SDS011;15448;51.956;7.670;2022-08-19T03:42:55;18.03;;;16.50;;
28160;SDS011;15448;51.956;7.670;2022-08-19T03:45:21;18.17;;;16.63;;
28160;SDS011;15448;51.956;7.670;2022-08-19T03:47:46;20.00;;;16.73;;
28160;SDS011;15448;51.956;7.670;2022-08-19T03:50:12;17.07;;;15.97;;
28160;SDS011;15448;51.956;7.670;2022-08-19T03:52:38;16.53;;;15.23;;
28160;SDS011;15448;51.956;7.670;2022-08-19T03:55:04;18.00;;;16.40;;
28160;SDS011;15448;51.956;7.670;2022-08-19T03:57:30;15.77;;;14.67;;
28160;SDS011;15448;51.956;7.670;2022-08-19T03:59:55;19.20;;;15.77;;
28160;SDS011;15448;51.956;7.670;2022-08-19T04:02:21;18.97;;;17.47;;
28160;SDS011;15448;51.956;7.670;2022-08-19T04:04:46;18.20;;;16.77;;
28160;SDS011;15448;51.956;7.670;2022-08-19T04:07:13;20.70;;;18.63;;
28160;SDS011;15448;51.956;7.670;2022-08-19T04:09:46;18.80;;;17.23;;
28160;SDS011;15448;51.956;7.670;2022-08-19T04:12:12;18.23;;;16.30;;
28160;SDS011;15448;51.956;7.670;2022-08-19T04:14:37;17.67;;;16.40;;
28160;SDS011;15448;51.956;7.670;2022-08-19T04:17:04;18.03;;;16.63;;
28160;SDS011;15448;51.956;7.670;2022-08-19T04:19:30;19.60;;;17.83;;
28160;SDS011;15448;51.956;7.670;2022-08-19T04:21:57;17.13;;;15.60;;
28160;SDS011;15448;51.956;7.670;2022-08-19T04:24:23;18.57;;;17.03;;
28160;SDS011;15448;51.956;7.670;2022-08-19T04:26:49;19.33;;;17.27;;
28160;SDS011;15448;51.956;7.670;2022-08-19T04:29:22;19.17;;;17.80;;
28160;SDS011;15448;51.956;7.670;2022-08-19T04:31:50;18.27;;;17.13;;
28160;SDS011;15448;51.956;7.670;2022-08-19T04:34:19;18.43;;;17.10;;
28160;SDS011;15448;51.956;7.670;2022-08-19T04:36:49;17.60;;;16.40;;
28160;SDS011;15448;51.956;7.670;2022-08-19T04:39:16;20.53;;;17.70;;
28160;SDS011;15448;51.956;7.670;2022-08-19T04:41:45;18.57;;;17.20;;
28160;SDS011;15448;51.956;7.670;2022-08-19T04:44:30;17.60;;;16.23;;
28160;SDS011;15448;51.956;7.670;2022-08-19T04:46:57;16.93;;;15.83;;
28160;SDS011;15448;51.956;7.670;2022-08-19T04:49:23;19.00;;;17.40;;
28160;SDS011;15448;51.956;7.670;2022-08-19T04:51:51;19.03;;;17.73;;
28160;SDS011;15448;51.956;7.670;2022-08-19T04:54:18;18.50;;;17.17;;
28160;SDS011;15448;51.956;7.670;2022-08-19T04:56:47;19.37;;;17.53;;
28160;SDS011;15448;51.956;7.670;2022-08-19T04:59:18;21.00;;;19.40;;
28160;SDS011;15448;51.956;7.670;2022-08-19T05:01:45;17.60;;;16.40;;
28160;SDS011;15448;51.956;7.670;2022-08-19T05:04:14;19.43;;;17.50;;
28160;SDS011;15448;51.956;7.670;2022-08-19T05:06:40;18.07;;;16.80;;
28160;SDS011;15448;51.956;7.670;2022-08-19T05:09:05;18.97;;;17.67;;
28160;SDS011;15448;51.956;7.670;2022-08-19T05:11:33;18.83;;;17.43;;
28160;SDS011;15448;51.956;7.670;2022-08-19T05:14:03;19.17;;;17.97;;
28160;SDS011;15448;51.956;7.670;2022-08-19T05:16:29;18.13;;;16.83;;
28160;SDS011;15448;51.956;7.670;2022-08-19T05:26:42;18.80;;;17.57;;
28160;SDS011;15448;51.956;7.670;2022-08-19T05:29:11;19.10;;;18.00;;
28160;SDS011;15448;51.956;7.670;2022-08-19T05:31:37;20.50;;;19.00;;
28160;SDS011;15448;51.956;7.670;2022-08-19T05:34:06;20.47;;;18.97;;
28160;SDS011;15448;51.956;7.670;2022-08-19T05:36:37;19.93;;;18.27;;
28160;SDS011;15448;51.956;7.670;2022-08-19T05:39:05;20.73;;;19.30;;
28160;SDS011;15448;51.956;7.670;2022-08-19T05:41:31;19.80;;;18.63;;
28160;SDS011;15448;51.956;7.670;2022-08-19T05:43:57;20.27;;;19.07;;
28160;SDS011;15448;51.956;7.670;2022-08-19T05:46:25;20.63;;;19.33;;
28160;SDS011;15448;51.956;7.670;2022-08-19T05:48:51;20.83;;;19.33;;
28160;SDS011;15448;51.956;7.670;2022-08-19T05:51:16;19.03;;;17.93;;
28160;SDS011;15448;51.956;7.670;2022-08-19T05:53:42;20.17;;;18.87;;
28160;SDS011;15448;51.956;7.670;2022-08-19T05:56:11;19.73;;;18.20;;
28160;SDS011;15448;51.956;7.670;2022-08-19T05:58:39;19.80;;;18.40;;
28160;SDS011;15448;51.956;7.670;2022-08-19T06:01:09;20.27;;;18.60;;
28160;SDS011;15448;51.956;7.670;2022-08-19T06:03:37;18.87;;;17.63;;
28160;SDS011;15448;51.956;7.670;2022-08-19T06:06:04;21.40;;;19.70;;
28160;SDS011;15448;51.956;7.670;2022-08-19T06:08:31;19.73;;;18.33;;
28160;SDS011;15448;51.956;7.670;2022-08-19T06:10:57;20.83;;;19.40;;
28160;SDS011;15448;51.956;7.670;2022-08-19T06:13:36;19.80;;;17.90;;
28160;SDS011;15448;51.956;7.670;2022-08-19T06:16:01;21.40;;;19.83;;
28160;SDS011;15448;51.956;7.670;2022-08-19T06:18:27;19.63;;;18.43;;
28160;SDS011;15448;51.956;7.670;2022-08-19T06:20:52;20.60;;;18.83;;
28160;SDS011;15448;51.956;7.670;2022-08-19T06:23:18;23.97;;;21.40;;
28160;SDS011;15448;51.956;7.670;2022-08-19T06:25:45;19.60;;;18.50;;
28160;SDS011;15448;51.956;7.670;2022-08-19T06:28:11;20.80;;;19.30;;
28160;SDS011;15448;51.956;7.670;2022-08-19T06:30:37;20.70;;;19.20;;
28160;SDS011;15448;51.956;7.670;2022-08-19T06:33:03;20.33;;;18.70;;
28160;SDS011;15448;51.956;7.670;2022-08-19T06:35:28;22.00;;;18.40;;
28160;SDS011;15448;51.956;7.670;2022-08-19T06:37:54;18.70;;;17.20;;
28160;SDS011;15448;51.956;7.670;2022-08-19T06:40:20;20.40;;;18.60;;
28160;SDS011;15448;51.956;7.670;2022-08-19T06:42:46;19.40;;;18.00;;
28160;SDS011;15448;51.956;7.670;2022-08-19T06:45:11;25.27;;;18.70;;
28160;SDS011;15448;51.956;7.670;2022-08-19T06:47:37;19.97;;;18.47;;
28160;SDS011;15448;51.956;7.670;2022-08-19T06:50:02;19.87;;;17.90;;
28160;SDS011;15448;51.956;7.670;2022-08-19T06:52:33;20.30;;;18.80;;
28160;SDS011;15448;51.956;7.670;2022-08-19T06:55:00;19.97;;;18.10;;
28160;SDS011;15448;51.956;7.670;2022-08-19T06:57:27;22.07;;;19.73;;
28160;SDS011;15448;51.956;7.670;2022-08-19T06:59:57;20.30;;;18.73;;
28160;SDS011;15448;51.956;7.670;2022-08-19T07:02:25;29.60;;;18.20;;
28160;SDS011;15448;51.956;7.670;2022-08-19T07:04:51;19.80;;;18.00;;
28160;SDS011;15448;51.956;7.670;2022-08-19T07:07:18;20.23;;;18.33;;
28160;SDS011;15448;51.956;7.670;2022-08-19T07:09:44;19.30;;;17.80;;
28160;SDS011;15448;51.956;7.670;2022-08-19T07:12:11;18.17;;;16.70;;
28160;SDS011;15448;51.956;7.670;2022-08-19T07:14:40;21.37;;;19.47;;
28160;SDS011;15448;51.956;7.670;2022-08-19T07:17:08;21.53;;;19.30;;
28160;SDS011;15448;51.956;7.670;2022-08-19T07:19:35;20.13;;;18.53;;
28160;SDS011;15448;51.956;7.670;2022-08-19T07:22:02;19.27;;;17.30;;
28160;SDS011;15448;51.956;7.670;2022-08-19T07:24:30;20.40;;;18.63;;
28160;SDS011;15448;51.956;7.670;2022-08-19T07:26:57;18.47;;;16.83;;
28160;SDS011;15448;51.956;7.670;2022-08-19T07:29:28;21.90;;;20.10;;
28160;SDS011;15448;51.956;7.670;2022-08-19T07:31:55;18.07;;;16.87;;
28160;SDS011;15448;51.956;7.670;2022-08-19T07:34:23;18.77;;;17.17;;
28160;SDS011;15448;51.956;7.670;2022-08-19T07:36:50;18.10;;;16.60;;
28160;SDS011;15448;51.956;7.670;2022-08-19T07:39:18;20.27;;;18.80;;
28160;SDS011;15448;51.956;7.670;2022-08-19T07:41:47;17.57;;;16.27;;
28160;SDS011;15448;51.956;7.670;2022-08-19T07:44:13;19.23;;;18.03;;
28160;SDS011;15448;51.956;7.670;2022-08-19T07:46:41;25.03;;;20.70;;
28160;SDS011;15448;51.956;7.670;2022-08-19T07:49:09;20.27;;;18.67;;
28160;SDS011;15448;51.956;7.670;2022-08-19T07:51:47;20.43;;;18.90;;
28160;SDS011;15448;51.956;7.670;2022-08-19T07:54:15;20.73;;;18.80;;
28160;SDS011;15448;51.956;7.670;2022-08-19T07:56:41;20.50;;;18.80;;
28160;SDS011;15448;51.956;7.670;2022-08-19T07:59:07;18.23;;;16.80;;
28160;SDS011;15448;51.956;7.670;2022-08-19T08:01:34;19.80;;;18.50;;
28160;SDS011;15448;51.956;7.670;2022-08-19T08:04:00;16.97;;;15.73;;
28160;SDS011;15448;51.956;7.670;2022-08-19T08:06:44;20.47;;;18.20;;
28160;SDS011;15448;51.956;7.670;2022-08-19T08:09:33;20.40;;;18.30;;
28160;SDS011;15448;51.956;7.670;2022-08-19T08:12:03;18.00;;;16.70;;
28160;SDS011;15448;51.956;7.670;2022-08-19T08:14:35;19.37;;;17.97;;
28160;SDS011;15448;51.956;7.670;2022-08-19T08:17:04;19.60;;;18.00;;
28160;SDS011;15448;51.956;7.670;2022-08-19T08:19:31;21.33;;;19.47;;
28160;SDS011;15448;51.956;7.670;2022-08-19T08:21:58;17.10;;;16.03;;
28160;SDS011;15448;51.956;7.670;2022-08-19T08:24:25;17.47;;;16.10;;
28160;SDS011;15448;51.956;7.670;2022-08-19T08:26:52;16.97;;;15.87;;
28160;SDS011;15448;51.956;7.670;2022-08-19T08:29:18;20.17;;;18.43;;
28160;SDS011;15448;51.956;7.670;2022-08-19T08:31:44;18.23;;;17.10;;
28160;SDS011;15448;51.956;7.670;2022-08-19T08:34:12;17.57;;;16.20;;
28160;SDS011;15448;51.956;7.670;2022-08-19T08:36:39;18.40;;;16.93;;
28160;SDS011;15448;51.956;7.670;2022-08-19T08:39:07;16.93;;;15.73;;
28160;SDS011;15448;51.956;7.670;2022-08-19T08:41:35;18.60;;;17.40;;
28160;SDS011;15448;51.956;7.670;2022-08-19T08:44:12;18.47;;;17.27;;
28160;SDS011;15448;51.956;7.670;2022-08-19T08:46:42;16.17;;;15.27;;
28160;SDS011;15448;51.956;7.670;2022-08-19T08:49:26;15.80;;;14.97;;
28160;SDS011;15448;51.956;7.670;2022-08-19T08:52:13;16.70;;;15.37;;
28160;SDS011;15448;51.956;7.670;2022-08-19T08:54:59;18.10;;;17.00;;
28160;SDS011;15448;51.956;7.670;2022-08-19T09:00:24;16.93;;;15.50;;
28160;SDS011;15448;51.956;7.670;2022-08-19T09:03:06;16.90;;;15.67;;
28160;SDS011;15448;51.956;7.670;2022-08-19T09:08:22;18.03;;;16.67;;
28160;SDS011;15448;51.956;7.670;2022-08-19T09:10:54;19.50;;;18.30;;
28160;SDS011;15448;51.956;7.670;2022-08-19T09:16:12;17.50;;;16.60;;
28160;SDS011;15448;51.956;7.670;2022-08-19T09:18:49;21.27;;;19.50;;
28160;SDS011;15448;51.956;7.670;2022-08-19T09:21:20;18.10;;;16.23;;
28160;SDS011;15448;51.956;7.670;2022-08-19T09:23:48;17.83;;;16.40;;
28160;SDS011;15448;51.956;7.670;2022-08-19T09:26:15;16.47;;;15.30;;
28160;SDS011;15448;51.956;7.670;2022-08-19T09:28:43;17.27;;;16.20;;
28160;SDS011;15448;51.956;7.670;2022-08-19T09:31:11;18.87;;;17.63;;
28160;SDS011;15448;51.956;7.670;2022-08-19T09:33:42;17.73;;;16.13;;
28160;SDS011;15448;51.956;7.670;2022-08-19T09:36:11;17.13;;;15.80;;
28160;SDS011;15448;51.956;7.670;2022-08-19T09:38:39;17.40;;;16.40;;
28160;SDS011;15448;51.956;7.670;2022-08-19T09:41:06;17.70;;;16.80;;
28160;SDS011;15448;51.956;7.670;2022-08-19T09:43:36;17.70;;;16.40;;
28160;SDS011;15448;51.956;7.670;2022-08-19T09:46:02;16.63;;;15.73;;
28160;SDS011;15448;51.956;7.670;2022-08-19T09:48:34;16.77;;;15.80;;
28160;SDS011;15448;51.956;7.670;2022-08-19T09:51:08;16.73;;;15.73;;
28160;SDS011;15448;51.956;7.670;2022-08-19T09:53:35;17.47;;;16.47;;
28160;SDS011;15448;51.956;7.670;2022-08-19T09:56:02;17.50;;;16.53;;
28160;SDS011;15448;51.956;7.670;2022-08-19T09:58:29;17.17;;;16.20;;
28160;SDS011;15448;51.956;7.670;2022-08-19T10:00:55;16.77;;;15.97;;
28160;SDS011;15448;51.956;7.670;2022-08-19T10:03:21;16.37;;;15.43;;
28160;SDS011;15448;51.956;7.670;2022-08-19T10:05:47;15.80;;;15.00;;
28160;SDS011;15448;51.956;7.670;2022-08-19T10:08:13;17.87;;;16.97;;
28160;SDS011;15448;51.956;7.670;2022-08-19T10:10:44;16.90;;;16.10;;
28160;SDS011;15448;51.956;7.670;2022-08-19T10:13:10;17.17;;;16.47;;
28160;SDS011;15448;51.956;7.670;2022-08-19T10:15:36;17.43;;;16.40;;
28160;SDS011;15448;51.956;7.670;2022-08-19T10:18:04;17.73;;;16.57;;
28160;SDS011;15448;51.956;7.670;2022-08-19T10:20:30;18.30;;;17.37;;
28160;SDS011;15448;51.956;7.670;2022-08-19T10:22:56;16.83;;;16.10;;
28160;SDS011;15448;51.956;7.670;2022-08-19T10:25:21;17.53;;;16.50;;
28160;SDS011;15448;51.956;7.670;2022-08-19T10:27:47;16.80;;;15.47;;
28160;SDS011;15448;51.956;7.670;2022-08-19T10:30:12;16.83;;;15.90;;
28160;SDS011;15448;51.956;7.670;2022-08-19T10:32:38;17.20;;;16.00;;
28160;SDS011;15448;51.956;7.670;2022-08-19T10:35:04;17.10;;;16.20;;
28160;SDS011;15448;51.956;7.670;2022-08-19T10:37:33;17.53;;;16.63;;
28160;SDS011;15448;51.956;7.670;2022-08-19T10:39:59;17.70;;;16.80;;
28160;SDS011;15448;51.956;7.670;2022-08-19T10:42:26;17.83;;;16.50;;
28160;SDS011;15448;51.956;7.670;2022-08-19T10:44:52;17.87;;;16.87;;
28160;SDS011;15448;51.956;7.670;2022-08-19T10:47:17;17.10;;;16.20;;
28160;SDS011;15448;51.956;7.670;2022-08-19T10:49:43;17.47;;;16.33;;
28160;SDS011;15448;51.956;7.670;2022-08-19T10:52:28;16.20;;;15.30;;
28160;SDS011;15448;51.956;7.670;2022-08-19T10:55:01;16.40;;;15.60;;
28160;SDS011;15448;51.956;7.670;2022-08-19T10:57:46;15.77;;;15.07;;
28160;SDS011;15448;51.956;7.670;2022-08-19T11:00:12;15.90;;;15.20;;
28160;SDS011;15448;51.956;7.670;2022-08-19T11:02:38;16.03;;;15.13;;
28160;SDS011;15448;51.956;7.670;2022-08-19T11:05:04;15.70;;;15.00;;
28160;SDS011;15448;51.956;7.670;2022-08-19T11:07:31;15.90;;;15.20;;
28160;SDS011;15448;51.956;7.670;2022-08-19T11:09:57;16.40;;;15.60;;
28160;SDS011;15448;51.956;7.670;2022-08-19T11:12:22;17.27;;;16.27;;
28160;SDS011;15448;51.956;7.670;2022-08-19T11:14:49;17.47;;;16.27;;
28160;SDS011;15448;51.956;7.670;2022-08-19T11:17:15;18.30;;;17.30;;
